createdAt,value
2022-12-29T00:00:15.843Z,8.80
2022-12-29T00:01:15.829Z,8.80
2022-12-29T00:02:15.897Z,8.78
2022-12-29T00:03:15.953Z,8.78
2022-12-29T00:04:15.974Z,8.77
2022-12-29T00:05:15.777Z,8.78
2022-12-29T00:06:15.766Z,8.77
2022-12-29T00:07:15.774Z,8.77
2022-12-29T00:08:15.745Z,8.78
2022-12-29T00:09:15.749Z,8.78
2022-12-29T00:10:15.731Z,8.78
2022-12-29T00:11:15.727Z,8.78
2022-12-29T00:12:15.720Z,8.80
2022-12-29T00:13:15.711Z,8.81
2022-12-29T00:14:15.709Z,8.83
2022-12-29T00:15:15.685Z,8.85
2022-12-29T00:16:15.707Z,8.85
2022-12-29T00:17:15.657Z,8.89
2022-12-29T00:18:15.649Z,8.88
2022-12-29T00:19:15.647Z,8.89
2022-12-29T00:20:15.644Z,8.90
2022-12-29T00:21:15.635Z,8.92
2022-12-29T00:22:15.605Z,8.93
2022-12-29T00:23:15.592Z,8.92
2022-12-29T00:24:15.588Z,8.93
2022-12-29T00:25:15.599Z,8.95
2022-12-29T00:26:15.579Z,8.93
2022-12-29T00:27:15.560Z,8.95
2022-12-29T00:28:15.538Z,8.95
2022-12-29T00:29:15.537Z,8.95
2022-12-29T00:30:15.562Z,8.96
2022-12-29T00:31:15.555Z,8.98
2022-12-29T00:32:15.498Z,8.98
2022-12-29T00:33:15.487Z,8.98
2022-12-29T00:34:15.483Z,8.99
2022-12-29T00:35:15.512Z,9.01
2022-12-29T00:36:15.501Z,9.01
2022-12-29T00:37:15.465Z,9.03
2022-12-29T00:38:15.467Z,9.03
2022-12-29T00:39:15.484Z,9.06
2022-12-29T00:40:15.460Z,9.06
2022-12-29T00:41:15.415Z,9.08
2022-12-29T00:42:15.407Z,9.11
2022-12-29T00:43:15.394Z,9.11
2022-12-29T00:44:15.399Z,9.11
2022-12-29T00:45:15.397Z,9.11
2022-12-29T00:46:19.610Z,9.11
2022-12-29T00:47:16.388Z,9.11
2022-12-29T00:48:15.345Z,9.12
2022-12-29T00:49:15.328Z,9.12
2022-12-29T00:50:15.346Z,9.12
2022-12-29T00:51:15.317Z,9.14
2022-12-29T00:52:15.352Z,9.14
2022-12-29T00:53:15.296Z,9.15
2022-12-29T00:54:15.275Z,9.14
2022-12-29T00:55:15.288Z,9.15
2022-12-29T00:56:15.264Z,9.15
2022-12-29T00:57:15.238Z,9.15
2022-12-29T00:58:15.237Z,9.16
2022-12-29T00:59:15.233Z,9.15
2022-12-29T01:00:15.240Z,9.15
2022-12-29T01:01:15.250Z,9.16
2022-12-29T01:02:15.307Z,9.16
2022-12-29T01:03:15.201Z,9.18
2022-12-29T01:04:15.177Z,9.16
2022-12-29T01:05:15.181Z,9.18
2022-12-29T01:06:15.156Z,9.16
2022-12-29T01:07:15.163Z,9.16
2022-12-29T01:08:15.139Z,9.16
2022-12-29T01:09:15.117Z,9.16
2022-12-29T01:10:15.136Z,9.18
2022-12-29T01:11:15.105Z,9.16
2022-12-29T01:12:15.091Z,9.19
2022-12-29T01:13:15.083Z,9.18
2022-12-29T01:14:15.088Z,9.22
2022-12-29T01:15:15.127Z,9.22
2022-12-29T01:16:15.087Z,9.22
2022-12-29T01:17:15.035Z,9.23
2022-12-29T01:18:15.028Z,9.24
2022-12-29T01:19:15.051Z,9.26
2022-12-29T01:20:15.037Z,9.27
2022-12-29T01:21:14.996Z,9.27
2022-12-29T01:22:15.002Z,9.27
2022-12-29T01:23:14.976Z,9.27
2022-12-29T01:24:14.979Z,9.29
2022-12-29T01:25:14.969Z,9.29
2022-12-29T01:26:14.952Z,9.30
2022-12-29T01:27:14.941Z,9.32
2022-12-29T01:28:14.933Z,9.32
2022-12-29T01:29:14.923Z,9.34
2022-12-29T01:30:14.935Z,9.33
2022-12-29T01:31:14.943Z,9.33
2022-12-29T01:32:14.893Z,9.33
2022-12-29T01:33:14.885Z,9.34
2022-12-29T01:34:14.869Z,9.34
2022-12-29T01:35:14.872Z,9.36
2022-12-29T01:36:14.856Z,9.37
2022-12-29T01:37:14.831Z,9.37
2022-12-29T01:38:14.828Z,9.40
2022-12-29T01:39:14.811Z,9.41
2022-12-29T01:40:14.822Z,9.41
2022-12-29T01:41:14.788Z,9.42
2022-12-29T01:42:14.782Z,9.42
2022-12-29T01:43:14.807Z,9.44
2022-12-29T01:44:14.763Z,9.44
2022-12-29T01:45:14.770Z,9.45
2022-12-29T01:46:14.829Z,9.47
2022-12-29T01:47:14.733Z,9.45
2022-12-29T01:48:14.743Z,9.47
2022-12-29T01:49:14.730Z,9.45
2022-12-29T01:50:14.745Z,9.48
2022-12-29T01:51:14.697Z,9.48
2022-12-29T01:52:14.702Z,9.50
2022-12-29T01:53:14.676Z,9.50
2022-12-29T01:54:14.672Z,9.50
2022-12-29T01:55:14.677Z,9.52
2022-12-29T01:56:14.647Z,9.51
2022-12-29T01:57:14.648Z,9.52
2022-12-29T01:58:14.642Z,9.54
2022-12-29T01:59:14.607Z,9.54
2022-12-29T02:00:14.660Z,9.52
2022-12-29T02:01:14.629Z,9.55
2022-12-29T02:02:14.664Z,9.55
2022-12-29T02:03:14.620Z,9.55
2022-12-29T02:04:14.625Z,9.59
2022-12-29T02:05:14.563Z,9.60
2022-12-29T02:06:14.571Z,9.62
2022-12-29T02:07:14.533Z,9.63
2022-12-29T02:08:14.528Z,9.62
2022-12-29T02:09:14.512Z,9.65
2022-12-29T02:10:14.523Z,9.65
2022-12-29T02:11:14.521Z,9.66
2022-12-29T02:12:14.482Z,9.66
2022-12-29T02:13:14.473Z,9.66
2022-12-29T02:14:14.465Z,9.67
2022-12-29T02:15:14.459Z,9.67
2022-12-29T02:16:14.536Z,9.67
2022-12-29T02:17:14.427Z,9.69
2022-12-29T02:18:14.415Z,9.70
2022-12-29T02:19:14.400Z,9.69
2022-12-29T02:20:14.403Z,9.69
2022-12-29T02:21:14.395Z,9.67
2022-12-29T02:22:14.391Z,9.69
2022-12-29T02:23:14.443Z,9.69
2022-12-29T02:24:14.352Z,9.69
2022-12-29T02:25:14.345Z,9.69
2022-12-29T02:26:14.366Z,9.69
2022-12-29T02:27:14.339Z,9.69
2022-12-29T02:28:14.375Z,9.69
2022-12-29T02:29:14.354Z,9.70
2022-12-29T02:30:14.318Z,9.70
2022-12-29T02:31:14.322Z,9.70
2022-12-29T02:32:14.280Z,9.70
2022-12-29T02:33:14.256Z,9.70
2022-12-29T02:34:14.259Z,9.70
2022-12-29T02:35:14.239Z,9.70
2022-12-29T02:36:14.248Z,9.70
2022-12-29T02:37:14.253Z,9.73
2022-12-29T02:38:14.215Z,9.73
2022-12-29T02:39:14.207Z,9.72
2022-12-29T02:40:14.190Z,9.73
2022-12-29T02:41:14.192Z,9.72
2022-12-29T02:42:14.169Z,9.72
2022-12-29T02:43:14.168Z,9.72
2022-12-29T02:44:14.152Z,9.70
2022-12-29T02:45:14.145Z,9.70
2022-12-29T02:46:14.188Z,9.70
2022-12-29T02:47:14.119Z,9.70
2022-12-29T02:48:14.105Z,9.69
2022-12-29T02:49:14.093Z,9.70
2022-12-29T02:50:14.090Z,9.69
2022-12-29T02:51:14.084Z,9.69
2022-12-29T02:52:14.072Z,9.70
2022-12-29T02:53:14.052Z,9.69
2022-12-29T02:54:14.044Z,9.70
2022-12-29T02:55:14.032Z,9.70
2022-12-29T02:56:14.036Z,9.73
2022-12-29T02:57:14.027Z,9.70
2022-12-29T02:58:14.005Z,9.72
2022-12-29T02:59:13.995Z,9.72
2022-12-29T03:00:13.986Z,9.72
2022-12-29T03:01:14.094Z,9.72
2022-12-29T03:02:14.047Z,9.73
2022-12-29T03:03:13.993Z,9.75
2022-12-29T03:04:13.939Z,9.77
2022-12-29T03:05:13.933Z,9.78
2022-12-29T03:06:13.952Z,9.80
2022-12-29T03:07:13.909Z,9.78
2022-12-29T03:08:13.899Z,9.78
2022-12-29T03:09:18.515Z,9.78
2022-12-29T03:10:14.881Z,9.78
2022-12-29T03:11:13.883Z,9.78
2022-12-29T03:12:13.870Z,9.77
2022-12-29T03:13:13.857Z,9.77
2022-12-29T03:14:13.839Z,9.77
2022-12-29T03:15:13.829Z,9.77
2022-12-29T03:16:13.844Z,9.75
2022-12-29T03:17:13.843Z,9.75
2022-12-29T03:18:13.799Z,9.75
2022-12-29T03:19:13.788Z,9.75
2022-12-29T03:20:13.776Z,9.73
2022-12-29T03:21:13.786Z,9.73
2022-12-29T03:22:13.766Z,9.73
2022-12-29T03:23:13.742Z,9.73
2022-12-29T03:24:13.737Z,9.73
2022-12-29T03:25:13.723Z,9.73
2022-12-29T03:26:13.724Z,9.73
2022-12-29T03:27:13.698Z,9.72
2022-12-29T03:28:13.704Z,9.72
2022-12-29T03:29:13.676Z,9.72
2022-12-29T03:30:13.678Z,9.72
2022-12-29T03:31:13.742Z,9.72
2022-12-29T03:32:13.657Z,9.70
2022-12-29T03:33:13.647Z,9.72
2022-12-29T03:34:13.638Z,9.70
2022-12-29T03:35:13.619Z,9.70
2022-12-29T03:36:13.631Z,9.70
2022-12-29T03:37:13.599Z,9.72
2022-12-29T03:38:13.599Z,9.72
2022-12-29T03:39:13.577Z,9.72
2022-12-29T03:40:13.576Z,9.70
2022-12-29T03:41:13.574Z,9.72
2022-12-29T03:42:13.560Z,9.72
2022-12-29T03:43:13.549Z,9.72
2022-12-29T03:44:13.539Z,9.72
2022-12-29T03:45:13.513Z,9.72
2022-12-29T03:46:13.573Z,9.73
2022-12-29T03:47:13.498Z,9.73
2022-12-29T03:48:13.492Z,9.78
2022-12-29T03:49:13.473Z,9.77
2022-12-29T03:50:13.485Z,9.78
2022-12-29T03:51:13.471Z,9.81
2022-12-29T03:52:13.451Z,9.83
2022-12-29T03:53:13.447Z,9.83
2022-12-29T03:54:13.425Z,9.84
2022-12-29T03:55:13.435Z,9.84
2022-12-29T03:56:13.424Z,9.87
2022-12-29T03:57:13.395Z,9.88
2022-12-29T03:58:13.377Z,9.90
2022-12-29T03:59:13.366Z,9.91
2022-12-29T04:00:13.374Z,9.93
2022-12-29T04:01:13.430Z,9.98
2022-12-29T04:02:13.565Z,9.99
2022-12-29T04:03:13.366Z,10.01
2022-12-29T04:04:13.324Z,10.05
2022-12-29T04:05:13.314Z,10.08
2022-12-29T04:06:13.318Z,10.10
2022-12-29T04:07:13.294Z,10.16
2022-12-29T04:08:13.282Z,10.17
2022-12-29T04:09:13.268Z,10.20
2022-12-29T04:10:13.262Z,10.20
2022-12-29T04:11:13.276Z,10.23
2022-12-29T04:12:13.242Z,10.21
2022-12-29T04:13:13.224Z,10.23
2022-12-29T04:14:13.219Z,10.23
2022-12-29T04:15:13.238Z,10.23
2022-12-29T04:16:13.236Z,10.24
2022-12-29T04:17:13.188Z,10.23
2022-12-29T04:18:13.184Z,10.23
2022-12-29T04:19:13.164Z,10.21
2022-12-29T04:20:13.175Z,10.21
2022-12-29T04:21:13.164Z,10.23
2022-12-29T04:22:13.147Z,10.23
2022-12-29T04:23:13.135Z,10.21
2022-12-29T04:24:13.114Z,10.23
2022-12-29T04:25:13.103Z,10.27
2022-12-29T04:26:13.120Z,10.30
2022-12-29T04:27:13.089Z,10.31
2022-12-29T04:28:13.103Z,10.35
2022-12-29T04:29:13.064Z,10.34
2022-12-29T04:30:13.069Z,10.34
2022-12-29T04:31:13.103Z,10.34
2022-12-29T04:32:13.042Z,10.31
2022-12-29T04:33:13.044Z,10.30
2022-12-29T04:34:13.019Z,10.31
2022-12-29T04:35:13.013Z,10.31
2022-12-29T04:36:13.009Z,10.28
2022-12-29T04:37:12.982Z,10.26
2022-12-29T04:38:12.984Z,10.27
2022-12-29T04:39:12.993Z,10.24
2022-12-29T04:40:12.970Z,10.23
2022-12-29T04:41:12.957Z,10.21
2022-12-29T04:42:12.932Z,10.20
2022-12-29T04:43:12.913Z,10.18
2022-12-29T04:44:12.913Z,10.18
2022-12-29T04:45:12.895Z,10.16
2022-12-29T04:46:12.957Z,10.16
2022-12-29T04:47:12.888Z,10.14
2022-12-29T04:48:12.873Z,10.10
2022-12-29T04:49:12.857Z,10.14
2022-12-29T04:50:12.865Z,10.10
2022-12-29T04:51:12.833Z,10.09
2022-12-29T04:52:12.843Z,10.09
2022-12-29T04:53:12.816Z,10.06
2022-12-29T04:54:12.822Z,10.08
2022-12-29T04:55:12.825Z,10.05
2022-12-29T04:56:12.785Z,10.03
2022-12-29T04:57:12.803Z,10.02
2022-12-29T04:58:17.532Z,9.98
2022-12-29T04:59:13.763Z,9.98
2022-12-29T05:00:12.746Z,9.96
2022-12-29T05:01:12.826Z,9.93
2022-12-29T05:02:12.909Z,9.91
2022-12-29T05:03:12.941Z,9.90
2022-12-29T05:04:12.711Z,9.88
2022-12-29T05:05:12.737Z,9.88
2022-12-29T05:06:12.713Z,9.88
2022-12-29T05:07:12.717Z,9.87
2022-12-29T05:08:12.664Z,9.85
2022-12-29T05:09:12.673Z,9.85
2022-12-29T05:10:12.651Z,9.84
2022-12-29T05:11:12.643Z,9.84
2022-12-29T05:12:12.640Z,9.83
2022-12-29T05:13:12.624Z,9.83
2022-12-29T05:14:12.611Z,9.81
2022-12-29T05:15:12.594Z,9.81
2022-12-29T05:16:12.590Z,9.81
2022-12-29T05:17:12.586Z,9.81
2022-12-29T05:18:12.558Z,9.81
2022-12-29T05:19:12.556Z,9.81
2022-12-29T05:20:12.540Z,9.80
2022-12-29T05:21:12.542Z,9.80
2022-12-29T05:22:12.533Z,9.80
2022-12-29T05:23:12.528Z,9.80
2022-12-29T05:24:12.496Z,9.78
2022-12-29T05:25:12.498Z,9.81
2022-12-29T05:26:12.479Z,9.84
2022-12-29T05:27:12.497Z,9.84
2022-12-29T05:28:12.450Z,9.88
2022-12-29T05:29:12.453Z,9.88
2022-12-29T05:30:12.431Z,9.91
2022-12-29T05:31:12.484Z,9.91
2022-12-29T05:32:12.427Z,9.90
2022-12-29T05:33:12.425Z,9.94
2022-12-29T05:34:12.394Z,9.96
2022-12-29T05:35:12.389Z,9.99
2022-12-29T05:36:12.379Z,10.02
2022-12-29T05:37:12.386Z,10.05
2022-12-29T05:38:12.357Z,10.08
2022-12-29T05:39:12.359Z,10.08
2022-12-29T05:40:12.349Z,10.08
2022-12-29T05:41:12.329Z,10.09
2022-12-29T05:42:12.344Z,10.08
2022-12-29T05:43:12.308Z,10.08
2022-12-29T05:44:12.295Z,10.09
2022-12-29T05:45:12.285Z,10.09
2022-12-29T05:46:12.336Z,10.09
2022-12-29T05:47:12.388Z,10.09
2022-12-29T05:48:12.271Z,10.08
2022-12-29T05:49:12.266Z,10.09
2022-12-29T05:50:12.249Z,10.08
2022-12-29T05:51:12.274Z,10.06
2022-12-29T05:52:12.247Z,10.08
2022-12-29T05:53:12.198Z,10.06
2022-12-29T05:54:12.204Z,10.05
2022-12-29T05:55:12.179Z,10.02
2022-12-29T05:56:12.169Z,10.02
2022-12-29T05:57:12.181Z,9.99
2022-12-29T05:58:12.150Z,9.98
2022-12-29T05:59:12.143Z,9.96
2022-12-29T06:00:12.144Z,9.96
2022-12-29T06:01:12.120Z,9.93
2022-12-29T06:02:12.381Z,9.93
2022-12-29T06:03:12.382Z,9.93
2022-12-29T06:04:12.091Z,9.91
2022-12-29T06:05:12.091Z,9.91
2022-12-29T06:06:12.062Z,9.91
2022-12-29T06:07:12.074Z,9.91
2022-12-29T06:08:12.056Z,9.93
2022-12-29T06:09:12.063Z,9.91
2022-12-29T06:10:12.034Z,9.93
2022-12-29T06:11:12.017Z,9.94
2022-12-29T06:12:12.022Z,9.93
2022-12-29T06:13:11.998Z,9.93
2022-12-29T06:14:11.983Z,9.91
2022-12-29T06:15:11.983Z,9.94
2022-12-29T06:16:11.993Z,9.94
2022-12-29T06:17:11.968Z,9.96
2022-12-29T06:18:17.948Z,9.96
2022-12-29T06:19:12.941Z,9.96
2022-12-29T06:20:11.917Z,9.98
2022-12-29T06:21:11.915Z,9.98
2022-12-29T06:22:11.918Z,10.01
2022-12-29T06:23:11.901Z,10.01
2022-12-29T06:24:11.900Z,10.01
2022-12-29T06:25:11.869Z,10.05
2022-12-29T06:26:11.868Z,10.05
2022-12-29T06:27:11.878Z,10.06
2022-12-29T06:28:11.839Z,10.06
2022-12-29T06:29:11.840Z,10.06
2022-12-29T06:30:11.860Z,10.08
2022-12-29T06:31:11.891Z,10.06
2022-12-29T06:32:11.894Z,10.03
2022-12-29T06:33:11.792Z,10.05
2022-12-29T06:34:11.793Z,10.03
2022-12-29T06:35:11.798Z,10.01
2022-12-29T06:36:11.751Z,9.99
2022-12-29T06:37:11.772Z,9.98
2022-12-29T06:38:11.742Z,9.96
2022-12-29T06:39:11.750Z,9.96
2022-12-29T06:40:11.712Z,9.96
2022-12-29T06:41:11.711Z,9.93
2022-12-29T06:42:11.720Z,9.93
2022-12-29T06:43:11.696Z,9.91
2022-12-29T06:44:11.675Z,9.90
2022-12-29T06:45:11.667Z,9.90
2022-12-29T06:46:11.694Z,9.87
2022-12-29T06:47:11.668Z,9.84
2022-12-29T06:48:11.637Z,9.84
2022-12-29T06:49:11.629Z,9.84
2022-12-29T06:50:11.631Z,9.81
2022-12-29T06:51:11.625Z,9.81
2022-12-29T06:52:13.269Z,9.78
2022-12-29T06:53:11.591Z,9.78
2022-12-29T06:54:11.571Z,9.75
2022-12-29T06:55:11.584Z,9.75
2022-12-29T06:56:11.553Z,9.77
2022-12-29T06:57:11.577Z,9.75
2022-12-29T06:58:11.542Z,9.73
2022-12-29T06:59:11.537Z,9.73
2022-12-29T07:00:11.525Z,9.73
2022-12-29T07:01:11.608Z,9.70
2022-12-29T07:02:11.873Z,9.70
2022-12-29T07:03:11.538Z,9.69
2022-12-29T07:04:11.497Z,9.70
2022-12-29T07:05:11.481Z,9.69
2022-12-29T07:06:11.444Z,9.70
2022-12-29T07:07:11.495Z,9.69
2022-12-29T07:08:11.424Z,9.69
2022-12-29T07:09:11.443Z,9.69
2022-12-29T07:10:11.413Z,9.69
2022-12-29T07:11:11.417Z,9.69
2022-12-29T07:12:11.404Z,9.66
2022-12-29T07:13:11.391Z,9.66
2022-12-29T07:14:11.366Z,9.63
2022-12-29T07:15:11.381Z,9.65
2022-12-29T07:16:11.379Z,9.63
2022-12-29T07:17:11.389Z,9.63
2022-12-29T07:18:11.302Z,9.63
2022-12-29T07:19:11.268Z,9.63
2022-12-29T07:20:11.308Z,9.63
2022-12-29T07:21:11.297Z,9.63
2022-12-29T07:22:11.284Z,9.63
2022-12-29T07:23:11.230Z,9.62
2022-12-29T07:24:11.209Z,9.62
2022-12-29T07:25:11.211Z,9.62
2022-12-29T07:26:11.189Z,9.62
2022-12-29T07:27:11.251Z,9.62
2022-12-29T07:28:11.221Z,9.62
2022-12-29T07:29:11.195Z,9.62
2022-12-29T07:30:11.152Z,9.65
2022-12-29T07:31:11.143Z,9.65
2022-12-29T07:32:11.259Z,9.65
2022-12-29T07:33:11.178Z,9.65
2022-12-29T07:34:11.164Z,9.65
2022-12-29T07:35:11.161Z,9.65
2022-12-29T07:36:11.150Z,9.66
2022-12-29T07:37:11.153Z,9.65
2022-12-29T07:38:11.126Z,9.65
2022-12-29T07:39:11.132Z,9.65
2022-12-29T07:40:11.044Z,9.66
2022-12-29T07:41:11.046Z,9.67
2022-12-29T07:42:11.062Z,9.66
2022-12-29T07:43:11.026Z,9.66
2022-12-29T07:44:11.055Z,9.66
2022-12-29T07:45:11.014Z,9.66
2022-12-29T07:46:19.041Z,9.67
2022-12-29T07:47:12.069Z,9.70
2022-12-29T07:48:10.980Z,9.69
2022-12-29T07:49:10.963Z,9.70
2022-12-29T07:50:10.955Z,9.72
2022-12-29T07:51:10.941Z,9.72
2022-12-29T07:52:10.918Z,9.73
2022-12-29T07:53:10.950Z,9.72
2022-12-29T07:54:10.913Z,9.72
2022-12-29T07:55:10.923Z,9.73
2022-12-29T07:56:10.910Z,9.72
2022-12-29T07:57:10.888Z,9.73
2022-12-29T07:58:10.929Z,9.72
2022-12-29T07:59:10.919Z,9.72
2022-12-29T08:00:10.919Z,9.70
2022-12-29T08:01:10.859Z,9.70
2022-12-29T08:02:10.880Z,9.70
2022-12-29T08:03:10.832Z,9.69
2022-12-29T08:04:10.844Z,9.67
2022-12-29T08:05:10.795Z,9.67
2022-12-29T08:06:10.789Z,9.67
2022-12-29T08:07:10.793Z,9.66
2022-12-29T08:08:10.783Z,9.67
2022-12-29T08:09:15.044Z,9.69
2022-12-29T08:10:11.732Z,9.69
2022-12-29T08:11:10.731Z,9.67
2022-12-29T08:12:10.735Z,9.69
2022-12-29T08:13:10.725Z,9.69
2022-12-29T08:14:10.696Z,9.70
2022-12-29T08:15:10.688Z,9.72
2022-12-29T08:16:10.743Z,9.70
2022-12-29T08:17:10.685Z,9.72
2022-12-29T08:18:10.677Z,9.73
2022-12-29T08:19:10.647Z,9.72
2022-12-29T08:20:10.633Z,9.73
2022-12-29T08:21:10.632Z,9.73
2022-12-29T08:22:10.620Z,9.73
2022-12-29T08:23:10.630Z,9.73
2022-12-29T08:24:10.599Z,9.73
2022-12-29T08:25:10.588Z,9.72
2022-12-29T08:26:10.569Z,9.73
2022-12-29T08:27:18.135Z,9.77
2022-12-29T08:28:11.567Z,9.78
2022-12-29T08:29:10.547Z,9.78
2022-12-29T08:30:10.530Z,9.77
2022-12-29T08:31:10.541Z,9.77
2022-12-29T08:32:10.517Z,9.78
2022-12-29T08:33:10.521Z,9.77
2022-12-29T08:34:10.536Z,9.77
2022-12-29T08:35:10.501Z,9.73
2022-12-29T08:36:10.536Z,9.73
2022-12-29T08:37:10.464Z,9.72
2022-12-29T08:38:10.473Z,9.72
2022-12-29T08:39:10.441Z,9.70
2022-12-29T08:40:10.431Z,9.70
2022-12-29T08:41:10.440Z,9.72
2022-12-29T08:42:10.419Z,9.70
2022-12-29T08:43:10.831Z,9.69
2022-12-29T08:44:10.391Z,9.67
2022-12-29T08:45:10.391Z,9.69
2022-12-29T08:46:10.451Z,9.69
2022-12-29T08:47:10.362Z,9.67
2022-12-29T08:48:10.364Z,9.67
2022-12-29T08:49:10.336Z,9.67
2022-12-29T08:50:10.323Z,9.66
2022-12-29T08:51:10.319Z,9.67
2022-12-29T08:52:10.327Z,9.66
2022-12-29T08:53:10.316Z,9.67
2022-12-29T08:54:10.304Z,9.67
2022-12-29T08:55:10.282Z,9.69
2022-12-29T08:56:10.259Z,9.67
2022-12-29T08:57:10.256Z,9.67
2022-12-29T08:58:10.258Z,9.67
2022-12-29T08:59:10.271Z,9.69
2022-12-29T09:00:10.223Z,9.67
2022-12-29T09:01:10.269Z,9.69
2022-12-29T09:02:10.371Z,9.66
2022-12-29T09:03:10.635Z,9.60
2022-12-29T09:04:15.546Z,9.55
2022-12-29T09:05:11.212Z,9.54
2022-12-29T09:06:10.174Z,9.52
2022-12-29T09:07:10.144Z,9.52
2022-12-29T09:08:10.153Z,9.50
2022-12-29T09:09:10.123Z,9.50
2022-12-29T09:10:10.131Z,9.50
2022-12-29T09:11:10.122Z,9.47
2022-12-29T09:12:10.124Z,9.47
2022-12-29T09:13:10.105Z,9.45
2022-12-29T09:14:10.097Z,9.45
2022-12-29T09:15:10.066Z,9.48
2022-12-29T09:16:10.084Z,9.51
2022-12-29T09:17:10.049Z,9.51
2022-12-29T09:18:10.060Z,9.52
2022-12-29T09:19:10.035Z,9.52
2022-12-29T09:20:10.024Z,9.54
2022-12-29T09:21:10.008Z,9.55
2022-12-29T09:22:09.995Z,9.57
2022-12-29T09:23:10.008Z,9.57
2022-12-29T09:24:09.985Z,9.59
2022-12-29T09:25:09.959Z,9.62
2022-12-29T09:26:09.965Z,9.63
2022-12-29T09:27:09.940Z,9.66
2022-12-29T09:28:09.966Z,9.67
2022-12-29T09:29:09.928Z,9.70
2022-12-29T09:30:09.919Z,9.72
2022-12-29T09:31:09.977Z,9.75
2022-12-29T09:32:13.889Z,9.77
2022-12-29T09:33:10.903Z,9.78
2022-12-29T09:34:09.892Z,9.80
2022-12-29T09:35:09.862Z,9.83
2022-12-29T09:36:09.880Z,9.85
2022-12-29T09:37:09.843Z,9.88
2022-12-29T09:38:09.855Z,9.90
2022-12-29T09:39:09.829Z,9.94
2022-12-29T09:40:09.821Z,9.98
2022-12-29T09:41:09.804Z,9.99
2022-12-29T09:42:09.800Z,10.02
2022-12-29T09:43:09.810Z,10.03
2022-12-29T09:44:09.778Z,10.05
2022-12-29T09:45:09.780Z,10.08
2022-12-29T09:46:09.795Z,10.08
2022-12-29T09:47:09.786Z,10.09
2022-12-29T09:48:09.926Z,10.12
2022-12-29T09:49:09.739Z,10.12
2022-12-29T09:50:09.708Z,10.14
2022-12-29T09:51:09.708Z,10.16
2022-12-29T09:52:09.706Z,10.17
2022-12-29T09:53:09.679Z,10.20
2022-12-29T09:54:09.705Z,10.23
2022-12-29T09:55:13.747Z,10.24
2022-12-29T09:56:09.651Z,10.27
2022-12-29T09:57:09.659Z,10.27
2022-12-29T09:58:09.631Z,10.28
2022-12-29T09:59:09.668Z,10.31
2022-12-29T10:00:09.615Z,10.31
2022-12-29T10:01:09.641Z,10.35
2022-12-29T10:02:09.764Z,10.36
2022-12-29T10:03:09.662Z,10.36
2022-12-29T10:04:09.592Z,10.39
2022-12-29T10:05:09.570Z,10.42
2022-12-29T10:06:09.571Z,10.45
2022-12-29T10:07:29.305Z,10.48
2022-12-29T10:08:15.656Z,10.54
2022-12-29T10:09:10.535Z,10.57
2022-12-29T10:10:09.522Z,10.58
2022-12-29T10:11:09.519Z,10.62
2022-12-29T10:12:09.517Z,10.65
2022-12-29T10:13:09.466Z,10.65
2022-12-29T10:14:13.862Z,10.67
2022-12-29T10:15:10.464Z,10.67
2022-12-29T10:16:09.494Z,10.67
2022-12-29T10:17:09.440Z,10.70
2022-12-29T10:18:09.446Z,10.70
2022-12-29T10:19:09.437Z,10.70
2022-12-29T10:20:09.432Z,10.73
2022-12-29T10:21:09.413Z,10.73
2022-12-29T10:22:09.391Z,10.76
2022-12-29T10:23:09.371Z,10.78
2022-12-29T10:24:09.413Z,10.78
2022-12-29T10:25:09.350Z,10.82
2022-12-29T10:26:09.354Z,10.85
2022-12-29T10:27:09.332Z,10.90
2022-12-29T10:28:09.328Z,10.94
2022-12-29T10:29:09.331Z,10.97
2022-12-29T10:30:09.310Z,11.00
2022-12-29T10:31:09.320Z,11.00
2022-12-29T10:32:09.316Z,10.98
2022-12-29T10:33:09.278Z,10.95
2022-12-29T10:34:09.285Z,10.93
2022-12-29T10:35:09.259Z,10.94
2022-12-29T10:36:09.243Z,10.93
2022-12-29T10:37:09.233Z,10.94
2022-12-29T10:38:09.224Z,10.90
2022-12-29T10:39:09.237Z,10.90
2022-12-29T10:40:09.208Z,10.86
2022-12-29T10:41:09.195Z,10.85
2022-12-29T10:42:09.183Z,10.82
2022-12-29T10:43:09.168Z,10.82
2022-12-29T10:44:09.185Z,10.80
2022-12-29T10:45:09.148Z,10.79
2022-12-29T10:46:09.217Z,10.78
2022-12-29T10:47:09.151Z,10.76
2022-12-29T10:48:09.130Z,10.75
2022-12-29T10:49:09.128Z,10.73
2022-12-29T10:50:09.099Z,10.70
2022-12-29T10:51:09.087Z,10.72
2022-12-29T10:52:09.087Z,10.72
2022-12-29T10:53:09.070Z,10.70
2022-12-29T10:54:09.080Z,10.70
2022-12-29T10:55:09.052Z,10.73
2022-12-29T10:56:09.041Z,10.75
2022-12-29T10:57:09.032Z,10.78
2022-12-29T10:58:09.023Z,10.79
2022-12-29T10:59:09.020Z,10.76
2022-12-29T11:00:09.004Z,10.76
2022-12-29T11:01:09.032Z,10.76
2022-12-29T11:02:09.133Z,10.76
2022-12-29T11:03:09.054Z,10.75
2022-12-29T11:04:08.974Z,10.75
2022-12-29T11:05:08.945Z,10.75
2022-12-29T11:06:08.944Z,10.73
2022-12-29T11:07:15.025Z,10.72
2022-12-29T11:08:09.933Z,10.73
2022-12-29T11:09:08.918Z,10.73
2022-12-29T11:10:08.897Z,10.75
2022-12-29T11:11:08.912Z,10.75
2022-12-29T11:12:08.880Z,10.75
2022-12-29T11:13:08.865Z,10.78
2022-12-29T11:14:08.879Z,10.79
2022-12-29T11:15:08.836Z,10.78
2022-12-29T11:16:08.890Z,10.79
2022-12-29T11:17:08.828Z,10.78
2022-12-29T11:18:08.817Z,10.79
2022-12-29T11:19:08.820Z,10.80
2022-12-29T11:20:08.790Z,10.80
2022-12-29T11:21:08.780Z,10.80
2022-12-29T11:22:08.780Z,10.80
2022-12-29T11:23:08.759Z,10.80
2022-12-29T11:24:08.770Z,10.80
2022-12-29T11:25:08.751Z,10.82
2022-12-29T11:26:08.775Z,10.82
2022-12-29T11:27:08.724Z,10.80
2022-12-29T11:28:08.718Z,10.83
2022-12-29T11:29:08.721Z,10.83
2022-12-29T11:30:08.698Z,10.82
2022-12-29T11:31:08.683Z,10.83
2022-12-29T11:32:08.757Z,10.82
2022-12-29T11:33:08.663Z,10.82
2022-12-29T11:34:08.672Z,10.85
2022-12-29T11:35:08.643Z,10.85
2022-12-29T11:36:08.647Z,10.83
2022-12-29T11:37:08.625Z,10.85
2022-12-29T11:38:08.614Z,10.85
2022-12-29T11:39:13.887Z,10.83
2022-12-29T11:40:09.595Z,10.86
2022-12-29T11:41:08.578Z,10.85
2022-12-29T11:42:08.576Z,10.83
2022-12-29T11:43:08.568Z,10.85
2022-12-29T11:44:08.575Z,10.86
2022-12-29T11:45:11.156Z,10.86
2022-12-29T11:46:08.597Z,10.85
2022-12-29T11:47:08.520Z,10.86
2022-12-29T11:48:08.520Z,10.86
2022-12-29T11:49:08.518Z,10.87
2022-12-29T11:50:08.500Z,10.87
2022-12-29T11:51:08.499Z,10.86
2022-12-29T11:52:08.491Z,10.86
2022-12-29T11:53:08.463Z,10.85
2022-12-29T11:54:08.472Z,10.85
2022-12-29T11:55:08.449Z,10.86
2022-12-29T11:56:08.436Z,10.86
2022-12-29T11:57:08.433Z,10.86
2022-12-29T11:58:08.413Z,10.85
2022-12-29T11:59:08.415Z,10.85
2022-12-29T12:00:08.394Z,10.85
2022-12-29T12:01:08.387Z,10.86
2022-12-29T12:02:08.428Z,10.85
2022-12-29T12:03:08.464Z,10.85
2022-12-29T12:04:08.445Z,10.85
2022-12-29T12:05:08.354Z,10.82
2022-12-29T12:06:08.361Z,10.83
2022-12-29T12:07:08.320Z,10.82
2022-12-29T12:08:08.333Z,10.85
2022-12-29T12:09:08.326Z,10.83
2022-12-29T12:10:08.466Z,10.82
2022-12-29T12:11:08.281Z,10.82
2022-12-29T12:12:08.269Z,10.83
2022-12-29T12:13:08.259Z,10.83
2022-12-29T12:14:08.268Z,10.83
2022-12-29T12:15:08.242Z,10.85
2022-12-29T12:16:08.264Z,10.85
2022-12-29T12:17:08.219Z,10.85
2022-12-29T12:18:08.210Z,10.83
2022-12-29T12:19:08.211Z,10.85
2022-12-29T12:20:08.194Z,10.82
2022-12-29T12:21:08.173Z,10.83
2022-12-29T12:22:08.171Z,10.82
2022-12-29T12:23:08.152Z,10.82
2022-12-29T12:24:08.169Z,10.80
2022-12-29T12:25:08.148Z,10.82
2022-12-29T12:26:08.124Z,10.82
2022-12-29T12:27:08.122Z,10.82
2022-12-29T12:28:08.117Z,10.82
2022-12-29T12:29:08.113Z,10.83
2022-12-29T12:30:08.106Z,10.82
2022-12-29T12:31:08.095Z,10.82
2022-12-29T12:32:08.076Z,10.80
2022-12-29T12:33:08.059Z,10.82
2022-12-29T12:34:08.068Z,10.83
2022-12-29T12:35:08.037Z,10.83
2022-12-29T12:36:08.034Z,10.83
2022-12-29T12:37:08.026Z,10.82
2022-12-29T12:38:08.011Z,10.83
2022-12-29T12:39:08.005Z,10.82
2022-12-29T12:40:07.996Z,10.83
2022-12-29T12:41:07.980Z,10.83
2022-12-29T12:42:07.973Z,10.83
2022-12-29T12:43:07.990Z,10.86
2022-12-29T12:44:07.949Z,10.85
2022-12-29T12:45:07.951Z,10.86
2022-12-29T12:46:07.961Z,10.86
2022-12-29T12:47:07.922Z,10.87
2022-12-29T12:48:07.909Z,10.85
2022-12-29T12:49:07.893Z,10.85
2022-12-29T12:50:07.911Z,10.86
2022-12-29T12:51:07.875Z,10.85
2022-12-29T12:52:07.876Z,10.85
2022-12-29T12:53:07.868Z,10.83
2022-12-29T12:54:07.866Z,10.85
2022-12-29T12:55:07.864Z,10.85
2022-12-29T12:56:07.832Z,10.83
2022-12-29T12:57:07.811Z,10.85
2022-12-29T12:58:07.814Z,10.83
2022-12-29T12:59:10.026Z,10.82
2022-12-29T13:00:07.804Z,10.82
2022-12-29T13:01:07.808Z,10.83
2022-12-29T13:02:07.928Z,10.83
2022-12-29T13:03:07.960Z,10.83
2022-12-29T13:04:07.749Z,10.83
2022-12-29T13:05:07.759Z,10.85
2022-12-29T13:06:07.728Z,10.86
2022-12-29T13:07:07.721Z,10.86
2022-12-29T13:08:07.715Z,10.87